Time;durP1;ratioP1;P1;durP2;ratioP2;P2;SDS_P1;SDS_P2;PMS_P1;PMS_P2;Temp;Humidity;BMP_temperature;BMP_pressure;BME280_temperature;BME280_humidity;BME280_pressure;Samples;Min_cycle;Max_cycle;Signal;HPM_P1;HPM_P2
2022/06/29 00:04:55;;;;;;;19.13;18.10;;;;;;;16.88;100.00;101317.65;2013213;71;33423;-72
2022/06/29 00:10:40;;;;;;;19.80;18.70;;;;;;;16.82;100.00;101319.16;1941149;74;31202;-72
2022/06/29 00:16:25;;;;;;;20.60;19.37;;;;;;;16.68;100.00;101311.37;1997078;71;30840;-71
2022/06/29 00:22:11;;;;;;;21.47;20.20;;;;;;;16.76;100.00;101307.82;2000842;71;32873;-72
2022/06/29 00:27:56;;;;;;;21.37;20.07;;;;;;;16.71;100.00;101311.30;1991710;71;32777;-72
2022/06/29 00:33:41;;;;;;;21.67;20.47;;;;;;;16.74;100.00;101308.69;2011659;71;31538;-71
2022/06/29 00:39:25;;;;;;;22.97;21.47;;;;;;;16.61;100.00;101308.72;2007943;71;32986;-73
2022/06/29 00:45:11;;;;;;;24.47;23.07;;;;;;;16.61;100.00;101310.95;2017036;70;33441;-72
2022/06/29 00:50:56;;;;;;;25.37;23.77;;;;;;;16.49;100.00;101310.63;2005914;71;33417;-72
2022/06/29 00:56:43;;;;;;;26.90;25.30;;;;;;;16.51;100.00;101306.12;2013402;71;32958;-72
2022/06/29 01:02:32;;;;;;;28.23;26.47;;;;;;;16.43;100.00;101299.25;2002173;71;32800;-73
2022/06/29 01:08:17;;;;;;;30.30;28.50;;;;;;;16.31;100.00;101298.96;2016788;70;32853;-71
2022/06/29 01:14:02;;;;;;;32.07;30.07;;;;;;;16.32;100.00;101300.06;1998591;71;33518;-72
2022/06/29 01:19:47;;;;;;;35.03;32.80;;;;;;;16.29;100.00;101298.46;2012080;71;33272;-72
2022/06/29 01:25:32;;;;;;;36.47;34.00;;;;;;;16.26;100.00;101299.90;1999061;71;32805;-72
2022/06/29 01:31:17;;;;;;;40.10;37.50;;;;;;;16.28;100.00;101289.78;1991839;71;33267;-71
2022/06/29 01:37:03;;;;;;;42.47;39.80;;;;;;;16.20;100.00;101294.72;2000806;71;33319;-71
2022/06/29 01:42:47;;;;;;;42.63;40.00;;;;;;;16.27;100.00;101287.55;1999206;71;33378;-72
2022/06/29 01:48:32;;;;;;;44.33;41.43;;;;;;;16.20;100.00;101282.11;1991762;71;32951;-72
2022/06/29 01:54:16;;;;;;;46.63;43.60;;;;;;;16.09;100.00;101282.88;2000442;71;32939;-73
2022/06/29 02:00:00;;;;;;;47.10;44.20;;;;;;;16.25;100.00;101283.41;2002336;71;32835;-72
2022/06/29 02:05:47;;;;;;;47.00;44.10;;;;;;;16.09;100.00;101266.06;2004731;71;33406;-72
2022/06/29 02:11:32;;;;;;;48.40;45.00;;;;;;;16.16;100.00;101267.06;1991560;71;32770;-71
2022/06/29 02:17:19;;;;;;;47.27;44.27;;;;;;;16.21;100.00;101264.16;2016854;71;32984;-71
2022/06/29 02:23:03;;;;;;;47.50;44.13;;;;;;;16.32;100.00;101256.61;2002180;71;32843;-72
2022/06/29 02:28:47;;;;;;;48.00;44.90;;;;;;;16.22;100.00;101258.22;2013408;71;33451;-72
2022/06/29 02:34:46;;;;;;;50.93;47.53;;;;;;;16.31;100.00;101253.54;1995124;71;33334;-72
2022/06/29 02:40:31;;;;;;;48.40;45.27;;;;;;;16.37;100.00;101250.06;1997263;71;33330;-72
2022/06/29 02:46:18;;;;;;;49.73;46.43;;;;;;;16.34;100.00;101248.70;2004066;71;33442;-71
2022/06/29 02:52:02;;;;;;;49.80;46.50;;;;;;;16.30;100.00;101244.06;2011855;71;32781;-71
2022/06/29 02:57:46;;;;;;;50.83;47.43;;;;;;;16.27;100.00;101237.66;2014932;71;32844;-72
2022/06/29 03:03:31;;;;;;;53.03;49.77;;;;;;;16.25;100.00;101224.55;2002484;71;33385;-70
2022/06/29 03:09:16;;;;;;;48.60;45.57;;;;;;;16.23;100.00;101219.81;1977711;72;33018;-72
2022/06/29 03:15:00;;;;;;;50.43;47.23;;;;;;;16.30;100.00;101215.42;2018616;71;32833;-71
2022/06/29 03:20:47;;;;;;;51.73;48.30;;;;;;;16.30;100.00;101212.63;2000377;71;32927;-71
2022/06/29 03:26:34;;;;;;;50.70;47.50;;;;;;;16.40;100.00;101210.17;2004685;71;33324;-71
2022/06/29 03:32:18;;;;;;;50.50;47.30;;;;;;;16.39;100.00;101202.33;2015108;71;33354;-72
2022/06/29 03:38:03;;;;;;;51.50;48.23;;;;;;;16.36;100.00;101204.37;1994938;71;32817;-72
2022/06/29 03:43:47;;;;;;;52.07;48.77;;;;;;;16.35;100.00;101198.49;2001011;71;32763;-72
2022/06/29 03:49:31;;;;;;;55.90;52.07;;;;;;;16.40;100.00;101196.15;2006321;71;32830;-71
2022/06/29 03:55:15;;;;;;;56.27;52.33;;;;;;;16.44;100.00;101201.38;2007720;71;32851;-72
2022/06/29 04:00:59;;;;;;;55.80;52.20;;;;;;;16.43;100.00;101209.53;1966464;70;39656;-72
2022/06/29 04:06:44;;;;;;;57.47;53.67;;;;;;;16.57;100.00;101213.16;1997376;71;32937;-72
2022/06/29 04:12:29;;;;;;;55.50;51.43;;;;;;;16.45;100.00;101226.87;2013044;71;33423;-72
2022/06/29 04:18:15;;;;;;;55.60;51.70;;;;;;;16.11;100.00;101249.78;1995355;71;33283;-71
2022/06/29 04:23:59;;;;;;;52.83;49.03;;;;;;;15.93;100.00;101252.11;2009565;71;32881;-72
2022/06/29 04:29:43;;;;;;;54.60;50.60;;;;;;;15.91;100.00;101253.02;2014950;71;32823;-72
2022/06/29 04:35:27;;;;;;;53.57;49.10;;;;;;;15.72;100.00;101252.27;2011483;71;32936;-72
2022/06/29 04:41:15;;;;;;;51.60;47.47;;;;;;;15.80;100.00;101243.97;2000876;71;32814;-71
2022/06/29 04:46:59;;;;;;;50.47;46.57;;;;;;;15.69;100.00;101247.29;1995099;71;33473;-71
2022/06/29 04:52:44;;;;;;;50.57;46.70;;;;;;;15.75;100.00;101234.83;2018708;71;32832;-72
2022/06/29 04:58:28;;;;;;;51.47;47.77;;;;;;;15.75;100.00;101234.27;2015284;71;32908;-72
2022/06/29 05:04:13;;;;;;;51.20;47.53;;;;;;;15.85;100.00;101241.64;1997403;71;33358;-72
2022/06/29 05:09:57;;;;;;;50.60;46.90;;;;;;;15.77;100.00;101229.19;1955860;72;33438;-71
2022/06/29 05:15:41;;;;;;;49.90;46.30;;;;;;;15.85;100.00;101224.27;2011756;71;32950;-72
2022/06/29 05:21:26;;;;;;;50.20;46.43;;;;;;;16.01;100.00;101221.96;2004119;71;33019;-72
2022/06/29 05:27:10;;;;;;;50.80;46.90;;;;;;;16.18;100.00;101231.95;2011310;71;32869;-73
2022/06/29 05:32:54;;;;;;;49.57;46.00;;;;;;;16.12;100.00;101230.43;2013400;71;32933;-70
2022/06/29 05:38:39;;;;;;;50.63;46.80;;;;;;;16.11;100.00;101220.92;2008217;71;32779;-72
2022/06/29 05:44:23;;;;;;;52.60;48.80;;;;;;;16.19;100.00;101217.38;2002322;71;33454;-72
2022/06/29 05:50:10;;;;;;;52.47;48.47;;;;;;;16.18;100.00;101222.15;1998840;71;32779;-69
2022/06/29 05:55:54;;;;;;;54.83;50.87;;;;;;;16.25;100.00;101229.58;2009650;71;32874;-70
2022/06/29 06:01:39;;;;;;;55.47;51.27;;;;;;;16.29;100.00;101222.20;2009884;71;33376;-68
2022/06/29 06:07:23;;;;;;;54.93;50.83;;;;;;;16.29;100.00;101225.57;2000230;71;32818;-69
2022/06/29 06:13:08;;;;;;;60.47;56.23;;;;;;;16.49;100.00;101228.48;2011371;71;33434;-70
2022/06/29 06:18:58;;;;;;;56.00;52.20;;;;;;;16.49;100.00;101221.47;1932663;74;33153;-70
2022/06/29 06:24:45;;;;;;;57.60;53.40;;;;;;;16.44;100.00;101216.80;2011532;71;32865;-71
2022/06/29 06:30:30;;;;;;;47.57;44.17;;;;;;;16.53;100.00;101220.52;2016783;71;32876;-71
2022/06/29 06:36:14;;;;;;;49.17;45.53;;;;;;;16.73;100.00;101219.22;2002649;71;32905;-70
2022/06/29 06:41:59;;;;;;;52.23;48.37;;;;;;;16.78;100.00;101222.75;2002638;70;32902;-68
2022/06/29 06:47:43;;;;;;;52.73;49.17;;;;;;;16.75;100.00;101224.80;2000353;71;33403;-71
2022/06/29 06:53:27;;;;;;;51.20;47.60;;;;;;;16.76;100.00;101229.27;2018694;71;32851;-71
2022/06/29 06:59:11;;;;;;;52.77;49.00;;;;;;;16.72;100.00;101239.47;2016802;71;32808;-70
2022/06/29 07:04:56;;;;;;;54.30;50.60;;;;;;;16.65;100.00;101232.61;2000954;71;32851;-72
2022/06/29 07:10:39;;;;;;;45.67;42.37;;;;;;;16.62;100.00;101237.45;2015238;71;32906;-66
2022/06/29 07:16:23;;;;;;;44.73;40.87;;;;;;;16.65;100.00;101230.64;2004607;71;32881;-68
2022/06/29 07:22:09;;;;;;;49.97;46.43;;;;;;;16.71;100.00;101233.59;2011737;71;33373;-69
2022/06/29 07:27:54;;;;;;;48.70;45.40;;;;;;;16.71;100.00;101239.20;2006364;71;32810;-67
2022/06/29 07:33:40;;;;;;;49.57;45.97;;;;;;;16.70;100.00;101226.88;2000822;71;32895;-67
2022/06/29 07:39:25;;;;;;;53.60;49.37;;;;;;;16.61;100.00;101225.97;2015198;71;33372;-67
2022/06/29 07:45:13;;;;;;;55.07;50.63;;;;;;;16.48;100.00;101246.44;1991783;71;33246;-68
2022/06/29 07:50:57;;;;;;;49.47;45.53;;;;;;;16.43;100.00;101231.16;1991606;71;32916;-67
2022/06/29 07:56:43;;;;;;;50.77;46.97;;;;;;;16.62;100.00;101189.20;2013304;71;32881;-67
2022/06/29 08:02:27;;;;;;;54.67;50.40;;;;;;;16.95;100.00;101230.47;2011830;71;32860;-68
2022/06/29 08:08:13;;;;;;;53.53;49.30;;;;;;;16.99;100.00;101235.70;1988111;71;32850;-68
2022/06/29 08:13:58;;;;;;;54.50;50.20;;;;;;;17.01;100.00;101260.64;2015340;71;33443;-67
2022/06/29 08:19:42;;;;;;;50.30;46.40;;;;;;;16.85;100.00;101255.98;2015162;71;33466;-68
2022/06/29 08:25:28;;;;;;;55.13;50.67;;;;;;;16.67;100.00;101240.98;2009478;71;32864;-67
2022/06/29 08:31:13;;;;;;;50.20;46.07;;;;;;;16.75;100.00;101222.55;2006199;70;32762;-67
2022/06/29 08:37:01;;;;;;;49.53;45.43;;;;;;;16.83;100.00;101211.97;1998936;71;32847;-67
2022/06/29 08:42:47;;;;;;;49.87;45.07;;;;;;;16.86;100.00;101241.39;2006180;71;33392;-68
2022/06/29 08:48:32;;;;;;;49.00;44.90;;;;;;;16.90;100.00;101224.17;2005872;71;33533;-67
2022/06/29 08:54:20;;;;;;;51.00;46.43;;;;;;;16.97;100.00;101231.56;2007983;71;30950;-67
2022/06/29 09:00:10;;;;;;;55.23;50.77;;;;;;;17.17;100.00;101227.66;2013238;71;31457;-68
2022/06/29 09:05:56;;;;;;;56.93;52.63;;;;;;;17.66;100.00;101228.63;1995127;71;33428;-67
2022/06/29 09:11:43;;;;;;;52.73;48.23;;;;;;;18.04;100.00;101225.55;2005842;71;31604;-67
2022/06/29 09:17:32;;;;;;;57.30;52.63;;;;;;;17.82;100.00;101231.83;2006342;71;32813;-67
2022/06/29 09:23:19;;;;;;;58.20;53.97;;;;;;;18.60;100.00;101228.91;2008423;71;33327;-68
2022/06/29 09:29:09;;;;;;;59.87;55.57;;;;;;;18.67;100.00;101224.77;1994885;71;30952;-67
2022/06/29 09:34:56;;;;;;;59.33;54.57;;;;;;;18.78;100.00;101216.25;2000957;71;30921;-67
2022/06/29 09:40:57;;;;;;;59.13;55.00;;;;;;;18.45;100.00;101225.70;2012289;71;30857;-68
2022/06/29 09:46:43;;;;;;;58.30;54.23;;;;;;;18.71;100.00;101213.92;2002355;71;30921;-66
2022/06/29 09:52:31;;;;;;;53.30;49.33;;;;;;;19.02;100.00;101206.70;2000935;71;30947;-67
2022/06/29 09:58:18;;;;;;;56.37;52.50;;;;;;;18.92;100.00;101209.85;2003954;71;30937;-68
2022/06/29 10:04:03;;;;;;;52.47;48.90;;;;;;;18.90;100.00;101200.93;2006546;71;30830;-68
2022/06/29 10:09:47;;;;;;;53.93;50.10;;;;;;;19.22;100.00;101198.12;2016828;71;30929;-67
2022/06/29 10:15:39;;;;;;;49.90;46.30;;;;;;;19.23;100.00;101205.42;2016857;71;31463;-66
2022/06/29 10:21:31;;;;;;;52.13;48.70;;;;;;;18.93;100.00;101202.49;2004166;71;30935;-68
2022/06/29 10:27:16;;;;;;;53.67;50.13;;;;;;;18.94;100.00;101206.97;2002419;71;30869;-68
2022/06/29 10:33:35;;;;;;;48.30;45.10;;;;;;;19.02;100.00;101205.30;2016829;70;30944;-68
2022/06/29 10:39:21;;;;;;;46.10;42.90;;;;;;;19.06;100.00;101213.32;2009645;71;31489;-68
2022/06/29 10:45:08;;;;;;;47.90;44.67;;;;;;;19.22;100.00;101207.98;2005882;71;33381;-68
2022/06/29 10:47:40;;;;;;;51.00;47.40;;;;;;;19.10;100.00;101214.31;1975373;72;24230;-67
2022/06/29 10:53:39;;;;;;;49.87;46.57;;;;;;;19.52;100.00;101198.48;2013567;71;33382;-67
2022/06/29 10:59:34;;;;;;;47.43;44.07;;;;;;;19.19;100.00;101212.31;2005854;71;30910;-68
2022/06/29 11:05:26;;;;;;;46.57;43.47;;;;;;;19.46;100.00;101213.36;1991641;71;30879;-67
2022/06/29 11:23:36;;;;;;;46.73;43.57;;;;;;;20.29;100.00;101186.83;2006472;71;30845;-68
2022/06/29 11:29:22;;;;;;;37.27;34.77;;;;;;;20.06;100.00;101174.19;2006669;71;33274;-68
2022/06/29 11:35:19;;;;;;;43.50;40.70;;;;;;;19.94;100.00;101179.71;2009435;71;31380;-67
2022/06/29 11:38:11;;;;;;;41.33;38.47;;;;;;;19.82;100.00;101190.31;1987601;72;26651;-67
2022/06/29 11:44:06;;;;;;;38.67;35.97;;;;;;;19.97;100.00;101171.42;1991592;71;30859;-68
2022/06/29 11:49:51;;;;;;;42.50;39.47;;;;;;;19.91;100.00;101175.59;2011377;71;31132;-67
2022/06/29 11:55:43;;;;;;;45.90;43.00;;;;;;;20.39;100.00;101172.91;2013444;71;31388;-68
2022/06/29 12:01:30;;;;;;;43.57;40.73;;;;;;;19.97;100.00;101172.84;2016939;71;30945;-67
2022/06/29 12:07:17;;;;;;;45.83;42.70;;;;;;;20.02;100.00;101166.17;2001686;71;33318;-67
2022/06/29 12:13:01;;;;;;;42.20;39.13;;;;;;;20.28;100.00;101161.16;2011659;71;30980;-68
2022/06/29 12:18:46;;;;;;;37.23;34.83;;;;;;;20.29;100.00;101148.74;2009575;71;30942;-68
2022/06/29 12:24:30;;;;;;;50.57;47.33;;;;;;;20.63;100.00;101141.16;2006388;71;30884;-68
2022/06/29 12:30:15;;;;;;;49.67;46.37;;;;;;;20.21;100.00;101141.72;2018538;71;31022;-68
2022/06/29 12:36:01;;;;;;;36.93;34.50;;;;;;;20.41;100.00;101136.11;1997154;71;30875;-68
2022/06/29 12:41:47;;;;;;;36.30;33.83;;;;;;;20.51;100.00;101121.34;2013334;71;30887;-68
2022/06/29 12:47:32;;;;;;;39.67;37.07;;;;;;;20.24;100.00;101117.05;2004418;71;30934;-68
2022/06/29 12:53:19;;;;;;;34.37;32.37;;;;;;;20.38;100.00;101133.16;2015007;71;30986;-68
2022/06/29 12:59:06;;;;;;;34.63;32.47;;;;;;;20.32;100.00;101124.06;1999079;71;30841;-67
2022/06/29 13:04:51;;;;;;;33.83;31.47;;;;;;;20.51;100.00;101120.77;2007865;71;31001;-68
2022/06/29 13:10:37;;;;;;;30.63;28.63;;;;;;;20.87;100.00;101113.87;2006213;71;30914;-68
2022/06/29 13:16:22;;;;;;;31.57;29.57;;;;;;;20.99;100.00;101105.17;2016870;71;33412;-67
2022/06/29 13:22:07;;;;;;;27.03;25.23;;;;;;;21.12;100.00;101101.20;2008317;71;30820;-68
2022/06/29 13:27:53;;;;;;;29.27;27.43;;;;;;;21.30;100.00;101093.63;2014898;71;30911;-68
2022/06/29 13:33:39;;;;;;;29.93;27.90;;;;;;;21.70;100.00;101099.38;2003639;71;30914;-68
2022/06/29 13:39:26;;;;;;;29.10;27.40;;;;;;;21.33;100.00;101097.16;2015359;71;31419;-67
2022/06/29 13:45:11;;;;;;;27.63;25.73;;;;;;;21.15;100.00;101085.82;2015083;71;30933;-68
2022/06/29 13:50:58;;;;;;;29.03;27.23;;;;;;;21.49;100.00;101078.06;2011377;71;30915;-68
2022/06/29 13:56:44;;;;;;;27.77;25.90;;;;;;;21.28;100.00;101088.90;2000857;71;31381;-68
2022/06/29 14:02:22;;;;;;;26.63;25.13;;;;;;;21.54;100.00;101098.45;2047534;69;31103;-67
2022/06/29 14:04:52;;;;;;;29.67;27.63;;;;;;;21.52;100.00;101104.23;2013171;70;24212;-67
2022/06/29 14:07:23;;;;;;;27.73;26.03;;;;;;;21.41;100.00;101111.52;2010771;70;24165;-67
2022/06/29 14:09:53;;;;;;;27.30;25.70;;;;;;;21.30;100.00;101110.58;1983869;72;24192;-67
2022/06/29 14:12:23;;;;;;;24.90;23.30;;;;;;;21.20;100.00;101108.20;1992806;72;24133;-67
2022/06/29 14:14:54;;;;;;;25.73;24.13;;;;;;;21.16;100.00;101105.01;1977428;72;24147;-67
2022/06/29 14:17:24;;;;;;;24.77;23.17;;;;;;;21.37;100.00;101102.92;1984741;72;24161;-67
2022/06/29 14:19:55;;;;;;;23.77;22.27;;;;;;;21.42;100.00;101104.69;1977830;72;24150;-67
2022/06/29 14:22:26;;;;;;;21.97;20.80;;;;;;;21.22;100.00;101110.69;1979058;72;24227;-67
2022/06/29 14:24:58;;;;;;;22.57;21.13;;;;;;;21.40;100.00;101101.37;1971955;72;24205;-67
2022/06/29 14:27:29;;;;;;;21.10;19.73;;;;;;;21.37;100.00;101102.92;1972153;72;24154;-67
2022/06/29 14:30:01;;;;;;;21.60;20.03;;;;;;;21.16;100.00;101097.36;1972264;72;24147;-69
2022/06/29 14:32:32;;;;;;;19.93;18.83;;;;;;;21.24;100.00;101102.08;1984846;72;24153;-67
2022/06/29 14:35:06;;;;;;;21.17;19.70;;;;;;;20.89;100.00;101106.44;1971707;72;24147;-67
2022/06/29 14:37:38;;;;;;;19.80;18.50;;;;;;;20.82;100.00;101104.20;1985840;72;24681;-67
2022/06/29 14:40:10;;;;;;;19.80;18.60;;;;;;;21.03;100.00;101118.84;1980360;72;24240;-68
2022/06/29 14:42:41;;;;;;;19.50;18.20;;;;;;;21.04;100.00;101119.91;1972342;72;24667;-68
2022/06/29 14:45:12;;;;;;;19.43;18.07;;;;;;;21.01;100.00;101111.31;1975985;72;24154;-67
2022/06/29 14:47:43;;;;;;;19.00;17.50;;;;;;;21.03;100.00;101117.42;1979002;72;24146;-67
2022/06/29 14:53:27;;;;;;;17.60;16.30;;;;;;;21.42;100.00;101105.52;1991811;71;31348;-67
2022/06/29 14:59:14;;;;;;;18.83;17.13;;;;;;;21.37;100.00;101100.09;1997178;71;30957;-67
2022/06/29 15:04:59;;;;;;;15.77;14.43;;;;;;;21.45;100.00;101082.78;2005848;71;33378;-68
2022/06/29 15:10:45;;;;;;;15.60;14.47;;;;;;;21.18;100.00;101078.66;2006626;71;31369;-68
2022/06/29 15:16:30;;;;;;;14.83;13.73;;;;;;;21.23;100.00;101081.23;2016678;71;31027;-68
2022/06/29 15:22:16;;;;;;;15.40;14.40;;;;;;;21.29;100.00;101082.66;2011773;71;30888;-67
2022/06/29 15:28:03;;;;;;;15.10;13.90;;;;;;;20.98;100.00;101100.69;2013297;71;30922;-69
2022/06/29 15:39:53;;;;;;;13.90;13.03;;;;;;;20.86;100.00;101099.50;2000750;71;30878;-70
2022/06/29 15:45:38;;;;;;;13.67;12.87;;;;;;;21.09;100.00;101094.86;2009706;71;33367;-66
2022/06/29 15:51:23;;;;;;;13.13;12.30;;;;;;;21.23;100.00;101052.98;1997611;71;30867;-68
2022/06/29 15:57:09;;;;;;;12.50;11.80;;;;;;;21.35;100.00;101073.58;2011188;71;31353;-68
2022/06/29 15:59:38;;;;;;;13.00;12.00;;;;;;;;;;1986002;72;24249;-68
2022/06/29 16:05:23;;;;;;;12.03;11.00;;;;;;;;;;2002323;71;30887;-66
2022/06/29 16:11:09;;;;;;;11.53;10.80;;;;;;;21.60;100.00;101053.23;2017034;71;30935;-67
2022/06/29 16:16:56;;;;;;;11.90;11.00;;;;;;;21.55;100.00;101058.29;2011623;71;31501;-70
2022/06/29 16:22:40;;;;;;;12.07;11.17;;;;;;;21.25;100.00;101070.41;2006406;71;30972;-67
2022/06/29 16:28:25;;;;;;;11.23;10.43;;;;;;;21.18;100.00;101060.30;2008529;71;33210;-69
2022/06/29 16:34:10;;;;;;;11.10;10.40;;;;;;;20.90;100.00;101051.03;2004188;71;30935;-67
2022/06/29 16:39:57;;;;;;;11.63;10.77;;;;;;;20.94;100.00;101052.56;2011624;71;33406;-67
2022/06/29 16:45:41;;;;;;;11.17;10.20;;;;;;;20.78;100.00;101042.54;1991549;71;30842;-68
2022/06/29 16:51:25;;;;;;;10.43;9.43;;;;;;;20.97;100.00;101029.26;2013166;71;30987;-69
2022/06/29 16:57:12;;;;;;;10.87;9.87;;;;;;;20.86;100.00;101037.37;2002460;71;31021;-68
2022/06/29 17:02:57;;;;;;;9.80;9.20;;;;;;;20.81;100.00;101032.53;2017042;71;30912;-71
2022/06/29 17:08:41;;;;;;;12.90;12.00;;;;;;;20.63;100.00;101036.71;2006463;71;30843;-72
2022/06/29 17:14:26;;;;;;;11.73;10.93;;;;;;;20.72;100.00;101036.03;2006433;71;30918;-72
2022/06/29 17:20:11;;;;;;;12.17;11.17;;;;;;;20.39;100.00;101033.23;2013347;71;30931;-73
2022/06/29 17:25:56;;;;;;;12.90;11.17;;;;;;;20.33;100.00;101038.27;2015373;71;30916;-73
2022/06/29 17:31:41;;;;;;;12.53;11.37;;;;;;;20.36;100.00;101053.11;2000884;71;30974;-73
2022/06/29 17:37:25;;;;;;;12.33;11.53;;;;;;;20.19;100.00;101045.35;2014986;71;30933;-73
2022/06/29 17:43:09;;;;;;;12.03;11.20;;;;;;;19.95;100.00;101039.81;2006408;71;30890;-73
2022/06/29 17:48:55;;;;;;;12.33;11.33;;;;;;;20.88;100.00;101035.59;2015285;71;33441;-75
2022/06/29 17:54:39;;;;;;;11.13;10.43;;;;;;;20.60;100.00;101038.83;2012273;71;33270;-75
2022/06/29 18:00:24;;;;;;;11.80;10.57;;;;;;;20.18;100.00;101047.92;2015217;71;30957;-75
2022/06/29 18:06:10;;;;;;;11.53;10.73;;;;;;;20.25;100.00;101042.54;2006178;71;31355;-75
2022/06/29 18:11:54;;;;;;;12.77;12.00;;;;;;;20.40;100.00;101043.36;2016960;71;30873;-76
2022/06/29 18:17:38;;;;;;;11.47;10.67;;;;;;;19.85;100.00;101043.03;2002653;71;31487;-78
2022/06/29 18:23:26;;;;;;;11.67;10.83;;;;;;;19.88;100.00;101042.36;2000866;71;33208;-79
2022/06/29 18:29:11;;;;;;;13.17;12.33;;;;;;;19.87;100.00;101040.70;2013128;71;33609;-76
2022/06/29 18:34:55;;;;;;;14.40;13.40;;;;;;;19.60;100.00;101048.84;2005912;71;30945;-77
2022/06/29 18:40:40;;;;;;;14.10;13.13;;;;;;;19.17;100.00;101045.64;2009549;71;30935;-78
2022/06/29 18:46:26;;;;;;;15.10;14.00;;;;;;;18.99;100.00;101044.09;2013672;71;30953;-73
2022/06/29 18:52:11;;;;;;;15.93;14.63;;;;;;;18.98;100.00;101041.02;2016734;71;31449;-78
2022/06/29 18:57:56;;;;;;;15.67;14.53;;;;;;;18.88;100.00;101030.95;2016837;71;31030;-78
2022/06/29 19:03:43;;;;;;;17.00;15.80;;;;;;;18.80;100.00;101034.63;2015153;71;30903;-82
2022/06/29 19:09:27;;;;;;;18.03;16.83;;;;;;;18.80;100.00;101042.23;2016990;71;31540;-74
2022/06/29 19:15:13;;;;;;;19.50;18.20;;;;;;;18.68;100.00;101054.19;2011322;71;31021;-73
2022/06/29 19:20:57;;;;;;;20.33;19.23;;;;;;;18.46;100.00;101062.23;2010194;71;30863;-77
2022/06/29 19:26:41;;;;;;;23.77;21.83;;;;;;;18.57;100.00;101079.03;2008321;71;30882;-77
2022/06/29 19:32:31;;;;;;;23.77;22.23;;;;;;;18.34;100.00;101087.39;2013200;71;30964;-75
2022/06/29 19:38:15;;;;;;;25.63;24.10;;;;;;;18.22;100.00;101090.05;2018188;71;30915;-74
2022/06/29 19:44:01;;;;;;;29.27;27.47;;;;;;;18.13;100.00;101100.46;2018523;71;30933;-72
2022/06/29 19:49:46;;;;;;;30.77;28.83;;;;;;;18.10;100.00;101084.23;2002341;69;30875;-75
2022/06/29 19:55:31;;;;;;;32.60;30.50;;;;;;;18.07;100.00;101091.35;2011581;71;30844;-72
2022/06/29 20:01:19;;;;;;;35.20;32.77;;;;;;;17.99;100.00;101089.94;1835277;78;33303;-83
2022/06/29 20:07:04;;;;;;;35.00;32.57;;;;;;;17.83;100.00;101105.05;1996365;70;30804;-74
2022/06/29 20:12:51;;;;;;;37.03;34.60;;;;;;;17.66;100.00;101130.30;1999996;71;30813;-76
2022/06/29 20:18:39;;;;;;;39.60;36.97;;;;;;;17.68;100.00;101139.21;2005409;71;31020;-77
2022/06/29 20:24:24;;;;;;;40.07;37.33;;;;;;;17.68;100.00;101137.81;2018559;71;31002;-81
2022/06/29 20:30:12;;;;;;;42.47;39.27;;;;;;;17.66;100.00;101145.75;2017876;71;34821;-80
2022/06/29 20:36:02;;;;;;;43.63;40.73;;;;;;;17.63;100.00;101138.78;2002064;69;30901;-75
2022/06/29 20:41:54;;;;;;;43.27;40.23;;;;;;;17.74;100.00;101132.30;2009605;71;30924;-83
2022/06/29 20:47:41;;;;;;;44.40;41.30;;;;;;;17.57;100.00;101125.20;2004310;71;30910;-76
2022/06/29 20:53:26;;;;;;;44.83;41.90;;;;;;;17.49;100.00;101119.80;2004015;71;31342;-76
2022/06/29 21:12:46;;;;;;;48.10;44.77;;;;;;;17.21;100.00;101130.98;2053424;69;30640;-76
2022/06/29 21:15:17;;;;;;;48.00;44.83;;;;;;;17.25;100.00;101127.20;1945357;73;24265;-77
2022/06/29 21:17:48;;;;;;;51.10;47.73;;;;;;;17.29;100.00;101130.19;2013362;70;26241;-75
2022/06/29 21:20:18;;;;;;;49.17;45.77;;;;;;;17.16;100.00;101143.18;2015840;70;24225;-76
2022/06/29 21:22:49;;;;;;;48.70;45.53;;;;;;;17.21;100.00;101133.22;2014529;70;24725;-76
2022/06/29 21:25:20;;;;;;;49.23;45.97;;;;;;;17.22;100.00;101137.69;2025324;70;24227;-76
2022/06/29 21:27:51;;;;;;;51.60;48.17;;;;;;;17.26;100.00;101140.10;2008853;70;24173;-77
2022/06/29 21:30:27;;;;;;;48.90;45.67;;;;;;;17.17;100.00;101146.81;1966615;69;106559;-78
2022/06/29 21:32:58;;;;;;;51.80;48.30;;;;;;;17.28;100.00;101151.02;1928163;73;24206;-77
2022/06/29 21:35:29;;;;;;;50.30;46.80;;;;;;;17.24;100.00;101149.41;1928247;73;24114;-78
2022/06/29 21:38:00;;;;;;;49.70;46.40;;;;;;;17.26;100.00;101148.52;1928299;74;26664;-77
2022/06/29 21:40:31;;;;;;;52.23;48.43;;;;;;;17.18;100.00;101145.10;1928571;74;24190;-78
2022/06/29 21:43:01;;;;;;;50.33;46.80;;;;;;;17.19;100.00;101147.34;1927039;70;102803;-74
2022/06/29 21:45:31;;;;;;;52.33;48.60;;;;;;;17.03;100.00;101143.30;1924499;74;26162;-74
2022/06/29 21:48:02;;;;;;;51.00;47.33;;;;;;;17.03;100.00;101143.30;1924416;74;24174;-74
2022/06/29 21:53:20;;;;;;;51.20;47.40;;;;;;;17.12;100.00;101149.75;1939693;72;104626;-82
2022/06/29 21:55:52;;;;;;;53.07;49.67;;;;;;;17.09;100.00;101151.24;1934420;72;26312;-83
2022/06/29 21:58:22;;;;;;;56.00;52.00;;;;;;;17.06;100.00;101149.09;1948597;74;24107;-82
2022/06/29 22:00:53;;;;;;;53.77;49.73;;;;;;;16.98;100.00;101150.44;1948366;74;24176;-81
2022/06/29 22:03:24;;;;;;;53.13;49.43;;;;;;;17.10;100.00;101150.67;1948380;74;26604;-81
2022/06/29 22:05:55;;;;;;;57.70;53.43;;;;;;;16.94;100.00;101152.23;1948531;74;24195;-81
2022/06/29 22:08:25;;;;;;;56.43;52.33;;;;;;;16.86;100.00;101155.81;1947763;74;24134;-82
2022/06/29 22:10:56;;;;;;;56.40;52.47;;;;;;;16.86;100.00;101155.81;1947518;74;24114;-82
2022/06/29 22:13:28;;;;;;;56.23;52.43;;;;;;;16.79;100.00;101159.05;1947383;74;24114;-81
2022/06/29 22:15:58;;;;;;;57.43;53.10;;;;;;;16.79;100.00;101156.24;1884609;75;26263;-83
2022/06/29 22:18:29;;;;;;;55.33;51.37;;;;;;;16.74;100.00;101161.41;1875630;75;24125;-82
2022/06/29 22:21:00;;;;;;;54.23;50.40;;;;;;;16.74;100.00;101161.41;1875593;75;26202;-81
2022/06/29 22:23:32;;;;;;;55.17;51.23;;;;;;;16.73;100.00;101163.12;1875085;75;24600;-81
2022/06/29 22:26:04;;;;;;;54.10;49.90;;;;;;;16.69;100.00;101162.94;1874726;75;24185;-81
2022/06/29 22:28:35;;;;;;;53.57;49.17;;;;;;;16.64;100.00;101169.27;1874922;75;26244;-81
2022/06/29 22:31:11;;;;;;;54.17;50.17;;;;;;;16.56;100.00;101177.00;1946862;74;24134;-82
2022/06/29 22:33:41;;;;;;;52.60;48.70;;;;;;;16.47;100.00;101178.34;1883827;75;26242;-81
2022/06/29 22:39:27;;;;;;;52.53;47.87;;;;;;;16.42;100.00;101174.25;2014645;71;32952;-74
2022/06/29 22:45:12;;;;;;;51.77;47.80;;;;;;;16.35;100.00;101159.24;2014853;71;33366;-74
2022/06/29 22:50:56;;;;;;;51.37;47.67;;;;;;;16.30;100.00;101152.34;1896383;71;101653;-80
2022/06/29 22:56:40;;;;;;;52.07;47.80;;;;;;;16.29;100.00;101170.34;2007852;71;32998;-74
2022/06/29 23:02:27;;;;;;;52.90;48.70;;;;;;;16.18;100.00;101159.66;2013230;71;32825;-74
2022/06/29 23:08:12;;;;;;;51.50;47.47;;;;;;;16.00;100.00;101160.65;2006006;71;33374;-73
2022/06/29 23:13:56;;;;;;;51.70;47.87;;;;;;;15.97;100.00;101169.09;1991825;71;32891;-74
2022/06/29 23:19:41;;;;;;;53.57;49.43;;;;;;;15.84;100.00;101163.77;2017179;71;32858;-73
2022/06/29 23:25:25;;;;;;;50.90;47.07;;;;;;;16.03;100.00;101179.63;2005018;70;32831;-73
2022/06/29 23:31:17;;;;;;;52.27;48.67;;;;;;;15.91;100.00;101169.80;2003339;69;33021;-81
2022/06/29 23:37:04;;;;;;;53.00;48.80;;;;;;;15.94;100.00;101159.36;2016051;71;32884;-74
2022/06/29 23:40:00;;;;;;;50.63;46.70;;;;;;;15.72;100.00;101164.03;1970567;70;26227;-77